DLH37L EDDS-EDDC
Flight info
| Callsign | DLH37L |
|---|---|
| Flight time | 0h 38m |
| Altitude | 23000 |
| Route | DKB9B/25 DKB N869 AMOSA/N0391F270 N869 ANELA/N0369F230 Z715 KULOK/N0420F310 Z715 ABKIS Q240 DRN |
| Aircraft | A20N/M-SDE2E3FGHIRWXY/LB1 |
Departure
| Time | 2026-05-06 18:41 |
|---|---|
| Airport | Stuttgart Airport (EDDS) |
Arrival
| Time | 2026-05-06 19:19 |
|---|---|
| Airport | Dresden Airport (EDDC) |
| Time | Latitude | Longitude | Altitude | Speed | Heading |
|---|---|---|---|---|---|
| 2026-05-06 18:12 | 48.68994 | 9.19898 | 1298 ft | 0 kts | 345° |
| 2026-05-06 18:28 | 48.68977 | 9.19907 | 1296 ft | 3 kts | 335° |
| 2026-05-06 18:29 | 48.68959 | 9.19922 | 1295 ft | 2 kts | 318° |
| 2026-05-06 18:29 | 48.68949 | 9.19938 | 1293 ft | 2 kts | 292° |
| 2026-05-06 18:29 | 48.68946 | 9.19961 | 1292 ft | 2 kts | 242° |
| 2026-05-06 18:29 | 48.68957 | 9.19980 | 1283 ft | 3 kts | 231° |
| 2026-05-06 18:30 | 48.68962 | 9.19989 | 1274 ft | 0 kts | 238° |
| 2026-05-06 18:33 | 48.68961 | 9.19986 | 1279 ft | 2 kts | 238° |
| 2026-05-06 18:34 | 48.68935 | 9.19922 | 1286 ft | 14 kts | 238° |
| 2026-05-06 18:34 | 48.68876 | 9.19838 | 1291 ft | 6 kts | 172° |
| 2026-05-06 18:34 | 48.68826 | 9.19900 | 1287 ft | 0 kts | 133° |
| 2026-05-06 18:34 | 48.68775 | 9.19978 | 1285 ft | 19 kts | 135° |
| 2026-05-06 18:35 | 48.68763 | 9.20110 | 1286 ft | 14 kts | 64° |
| 2026-05-06 18:35 | 48.68809 | 9.20338 | 1280 ft | 33 kts | 74° |
| 2026-05-06 18:35 | 48.68881 | 9.20714 | 1270 ft | 41 kts | 74° |
| 2026-05-06 18:35 | 48.68944 | 9.21037 | 1260 ft | 29 kts | 73° |
| 2026-05-06 18:36 | 48.68971 | 9.21185 | 1260 ft | 21 kts | 75° |
| 2026-05-06 18:36 | 48.69026 | 9.21414 | 1254 ft | 15 kts | 46° |
| 2026-05-06 18:36 | 48.69048 | 9.21420 | 1256 ft | 8 kts | 356° |
| 2026-05-06 18:36 | 48.69121 | 9.21519 | 1264 ft | 24 kts | 76° |
| 2026-05-06 18:37 | 48.69144 | 9.21810 | 1249 ft | 30 kts | 111° |
| 2026-05-06 18:37 | 48.69111 | 9.22012 | 1246 ft | 10 kts | 52° |
| 2026-05-06 18:37 | 48.69157 | 9.22171 | 1234 ft | 21 kts | 74° |
| 2026-05-06 18:37 | 48.69199 | 9.22392 | 1228 ft | 16 kts | 73° |
| 2026-05-06 18:38 | 48.69241 | 9.22616 | 1226 ft | 28 kts | 74° |
| 2026-05-06 18:38 | 48.69303 | 9.22942 | 1224 ft | 27 kts | 73° |
| 2026-05-06 18:38 | 48.69355 | 9.23210 | 1217 ft | 32 kts | 74° |
| 2026-05-06 18:38 | 48.69415 | 9.23531 | 1208 ft | 21 kts | 73° |
| 2026-05-06 18:39 | 48.69468 | 9.23810 | 1198 ft | 34 kts | 74° |
| 2026-05-06 18:39 | 48.69529 | 9.24139 | 1193 ft | 27 kts | 74° |
| 2026-05-06 18:39 | 48.69517 | 9.24308 | 1189 ft | 11 kts | 158° |
| 2026-05-06 18:40 | 48.69375 | 9.24328 | 1189 ft | 1 kts | 219° |
| 2026-05-06 18:40 | 48.69369 | 9.24277 | 1190 ft | 10 kts | 281° |
| 2026-05-06 18:40 | 48.69331 | 9.24010 | 1193 ft | 59 kts | 255° |
| 2026-05-06 18:40 | 48.69140 | 9.23010 | 1223 ft | 135 kts | 253° |
| 2026-05-06 18:41 | 48.68846 | 9.21439 | 1688 ft | 163 kts | 253° |
| 2026-05-06 18:41 | 48.68562 | 9.19790 | 2757 ft | 157 kts | 256° |
| 2026-05-06 18:41 | 48.68312 | 9.18219 | 3644 ft | 163 kts | 257° |
| 2026-05-06 18:41 | 48.67847 | 9.16478 | 4188 ft | 188 kts | 245° |
| 2026-05-06 18:42 | 48.67367 | 9.14529 | 4705 ft | 213 kts | 253° |
| 2026-05-06 18:42 | 48.66931 | 9.12240 | 4978 ft | 232 kts | 254° |
| 2026-05-06 18:42 | 48.66725 | 9.09836 | 5033 ft | 233 kts | 277° |
| 2026-05-06 18:42 | 48.67345 | 9.07572 | 5030 ft | 238 kts | 307° |
| 2026-05-06 18:43 | 48.68685 | 9.06074 | 5029 ft | 244 kts | 335° |
| 2026-05-06 18:43 | 48.70352 | 9.05475 | 5031 ft | 249 kts | 350° |
| 2026-05-06 18:43 | 48.72109 | 9.05003 | 5151 ft | 269 kts | 343° |
| 2026-05-06 18:43 | 48.73935 | 9.04233 | 6165 ft | 271 kts | 341° |
| 2026-05-06 18:44 | 48.75822 | 9.03959 | 7235 ft | 279 kts | 6° |
| 2026-05-06 18:44 | 48.77664 | 9.04972 | 8216 ft | 289 kts | 32° |
| 2026-05-06 18:44 | 48.79106 | 9.07116 | 9237 ft | 294 kts | 52° |
| 2026-05-06 18:44 | 48.80286 | 9.09691 | 10201 ft | 301 kts | 57° |
| 2026-05-06 18:45 | 48.81464 | 9.12464 | 10671 ft | 324 kts | 57° |
| 2026-05-06 18:45 | 48.82747 | 9.15432 | 11069 ft | 347 kts | 56° |
| 2026-05-06 18:45 | 48.84121 | 9.18501 | 11830 ft | 355 kts | 56° |
| 2026-05-06 18:45 | 48.85057 | 9.20549 | 12429 ft | 358 kts | 56° |
| 2026-05-06 18:46 | 48.86973 | 9.24692 | 13576 ft | 366 kts | 56° |
| 2026-05-06 18:46 | 48.88452 | 9.27872 | 14360 ft | 370 kts | 56° |
| 2026-05-06 18:46 | 48.89939 | 9.31077 | 15220 ft | 372 kts | 56° |
| 2026-05-06 18:46 | 48.91314 | 9.34428 | 16033 ft | 374 kts | 64° |
| 2026-05-06 18:47 | 48.92365 | 9.38052 | 16817 ft | 377 kts | 71° |
| 2026-05-06 18:47 | 48.93321 | 9.41784 | 17605 ft | 381 kts | 70° |
| 2026-05-06 18:47 | 48.94296 | 9.45549 | 18320 ft | 385 kts | 70° |
| 2026-05-06 18:47 | 48.95284 | 9.49351 | 19030 ft | 388 kts | 71° |
| 2026-05-06 18:48 | 48.96279 | 9.53186 | 19702 ft | 391 kts | 71° |
| 2026-05-06 18:48 | 48.97281 | 9.57054 | 20393 ft | 394 kts | 71° |
| 2026-05-06 18:48 | 48.98289 | 9.60958 | 21022 ft | 399 kts | 71° |
| 2026-05-06 18:48 | 48.99308 | 9.64909 | 21675 ft | 402 kts | 71° |
| 2026-05-06 18:49 | 49.00324 | 9.68854 | 22322 ft | 406 kts | 71° |
| 2026-05-06 18:49 | 49.01358 | 9.72881 | 22722 ft | 410 kts | 72° |
| 2026-05-06 18:49 | 49.02397 | 9.76929 | 22820 ft | 411 kts | 72° |
| 2026-05-06 18:49 | 49.03437 | 9.80991 | 22825 ft | 411 kts | 72° |
| 2026-05-06 18:50 | 49.04475 | 9.85052 | 22828 ft | 411 kts | 72° |
| 2026-05-06 18:50 | 49.05513 | 9.89124 | 22834 ft | 411 kts | 72° |
| 2026-05-06 18:50 | 49.06550 | 9.93200 | 22821 ft | 411 kts | 72° |
| 2026-05-06 18:50 | 49.07584 | 9.97269 | 22831 ft | 412 kts | 72° |
| 2026-05-06 18:51 | 49.08618 | 10.01349 | 22825 ft | 412 kts | 72° |
| 2026-05-06 18:51 | 49.09650 | 10.05426 | 22832 ft | 413 kts | 72° |
| 2026-05-06 18:51 | 49.10671 | 10.09464 | 22835 ft | 413 kts | 72° |
| 2026-05-06 18:51 | 49.11703 | 10.13556 | 22840 ft | 413 kts | 72° |
| 2026-05-06 18:52 | 49.12735 | 10.17654 | 22846 ft | 414 kts | 72° |
| 2026-05-06 18:52 | 49.13918 | 10.21691 | 22847 ft | 417 kts | 64° |
| 2026-05-06 18:52 | 49.15508 | 10.25425 | 22842 ft | 422 kts | 55° |
| 2026-05-06 18:52 | 49.17472 | 10.28777 | 22848 ft | 425 kts | 47° |
| 2026-05-06 18:53 | 49.19532 | 10.31939 | 22842 ft | 425 kts | 48° |
| 2026-05-06 18:53 | 49.21610 | 10.35158 | 22846 ft | 425 kts | 48° |
| 2026-05-06 18:53 | 49.23687 | 10.38387 | 22847 ft | 425 kts | 48° |
| 2026-05-06 18:53 | 49.25770 | 10.41602 | 22852 ft | 426 kts | 47° |
| 2026-05-06 18:54 | 49.27869 | 10.44807 | 22855 ft | 425 kts | 47° |
| 2026-05-06 18:54 | 49.29965 | 10.48000 | 22860 ft | 425 kts | 47° |
| 2026-05-06 18:54 | 49.32062 | 10.51202 | 22852 ft | 425 kts | 47° |
| 2026-05-06 18:54 | 49.34157 | 10.54410 | 22855 ft | 425 kts | 47° |
| 2026-05-06 18:55 | 49.36237 | 10.57630 | 22852 ft | 424 kts | 48° |
| 2026-05-06 18:55 | 49.38269 | 10.60913 | 22846 ft | 424 kts | 49° |
| 2026-05-06 18:55 | 49.40285 | 10.64222 | 22832 ft | 425 kts | 49° |
| 2026-05-06 18:55 | 49.42309 | 10.67539 | 22815 ft | 425 kts | 48° |
| 2026-05-06 18:56 | 49.44371 | 10.70825 | 22818 ft | 426 kts | 47° |
| 2026-05-06 18:56 | 49.46443 | 10.74074 | 22817 ft | 427 kts | 47° |
| 2026-05-06 18:56 | 49.48497 | 10.77289 | 22809 ft | 427 kts | 47° |
| 2026-05-06 18:56 | 49.50576 | 10.80553 | 22803 ft | 427 kts | 47° |
| 2026-05-06 18:57 | 49.52658 | 10.83833 | 22800 ft | 428 kts | 47° |
| 2026-05-06 18:57 | 49.54736 | 10.87122 | 22802 ft | 428 kts | 47° |
| 2026-05-06 18:57 | 49.56817 | 10.90421 | 22805 ft | 428 kts | 47° |
| 2026-05-06 18:57 | 49.58868 | 10.93679 | 22802 ft | 428 kts | 47° |
| 2026-05-06 18:58 | 49.60950 | 10.96990 | 22804 ft | 429 kts | 47° |
| 2026-05-06 18:58 | 49.63025 | 11.00295 | 22802 ft | 429 kts | 47° |
| 2026-05-06 18:58 | 49.65107 | 11.03614 | 22800 ft | 429 kts | 47° |
| 2026-05-06 18:58 | 49.67188 | 11.06935 | 22803 ft | 430 kts | 47° |
| 2026-05-06 18:59 | 49.69264 | 11.10253 | 22797 ft | 430 kts | 47° |
| 2026-05-06 18:59 | 49.71345 | 11.13582 | 22797 ft | 430 kts | 47° |
| 2026-05-06 18:59 | 49.73423 | 11.16910 | 22798 ft | 429 kts | 47° |
| 2026-05-06 18:59 | 49.75472 | 11.20197 | 22798 ft | 430 kts | 47° |
| 2026-05-06 19:00 | 49.77676 | 11.23340 | 22798 ft | 431 kts | 38° |
| 2026-05-06 19:00 | 49.80091 | 11.26075 | 22784 ft | 430 kts | 36° |
| 2026-05-06 19:00 | 49.82512 | 11.28796 | 22801 ft | 430 kts | 36° |
| 2026-05-06 19:00 | 49.84143 | 11.30641 | 22801 ft | 429 kts | 36° |
| 2026-05-06 19:01 | 49.87337 | 11.34266 | 22801 ft | 429 kts | 36° |
| 2026-05-06 19:01 | 49.89746 | 11.37003 | 22804 ft | 428 kts | 36° |
| 2026-05-06 19:01 | 49.92146 | 11.39742 | 22802 ft | 428 kts | 37° |
| 2026-05-06 19:01 | 49.94381 | 11.42795 | 22802 ft | 428 kts | 46° |
| 2026-05-06 19:02 | 49.96477 | 11.46108 | 22810 ft | 428 kts | 45° |
| 2026-05-06 19:02 | 49.98575 | 11.49394 | 22792 ft | 428 kts | 45° |
| 2026-05-06 19:02 | 50.00651 | 11.52639 | 22802 ft | 428 kts | 45° |
| 2026-05-06 19:02 | 50.02747 | 11.55918 | 22802 ft | 427 kts | 45° |
| 2026-05-06 19:03 | 50.04841 | 11.59203 | 22801 ft | 427 kts | 45° |
| 2026-05-06 19:03 | 50.06933 | 11.62491 | 22803 ft | 427 kts | 45° |
| 2026-05-06 19:03 | 50.08317 | 11.64685 | 22803 ft | 427 kts | 46° |
| 2026-05-06 19:03 | 50.11039 | 11.69180 | 22807 ft | 426 kts | 47° |
| 2026-05-06 19:04 | 50.12376 | 11.71426 | 22806 ft | 426 kts | 47° |
| 2026-05-06 19:04 | 50.14388 | 11.74809 | 22804 ft | 426 kts | 47° |
| 2026-05-06 19:04 | 50.16404 | 11.78191 | 22807 ft | 426 kts | 47° |
| 2026-05-06 19:04 | 50.18385 | 11.81636 | 22804 ft | 425 kts | 52° |
| 2026-05-06 19:05 | 50.20080 | 11.85420 | 22809 ft | 425 kts | 59° |
| 2026-05-06 19:05 | 50.21618 | 11.89374 | 22801 ft | 426 kts | 59° |
| 2026-05-06 19:05 | 50.23166 | 11.93311 | 22796 ft | 425 kts | 59° |
| 2026-05-06 19:05 | 50.24719 | 11.97252 | 22801 ft | 425 kts | 59° |
| 2026-05-06 19:06 | 50.26270 | 12.01191 | 22800 ft | 425 kts | 58° |
| 2026-05-06 19:06 | 50.27914 | 12.04980 | 22800 ft | 425 kts | 56° |
| 2026-05-06 19:06 | 50.29593 | 12.08789 | 22802 ft | 425 kts | 56° |
| 2026-05-06 19:07 | 50.34518 | 12.20136 | 22795 ft | 425 kts | 60° |
| 2026-05-06 19:07 | 50.35918 | 12.24210 | 22797 ft | 425 kts | 63° |
| 2026-05-06 19:07 | 50.37758 | 12.29693 | 22793 ft | 425 kts | 63° |
| 2026-05-06 19:08 | 50.38673 | 12.32410 | 22791 ft | 425 kts | 63° |
| 2026-05-06 19:08 | 50.40055 | 12.36515 | 22789 ft | 425 kts | 63° |
| 2026-05-06 19:08 | 50.41880 | 12.41949 | 22783 ft | 425 kts | 63° |
| 2026-05-06 19:08 | 50.43255 | 12.46055 | 22791 ft | 425 kts | 63° |
| 2026-05-06 19:09 | 50.44629 | 12.50165 | 22788 ft | 425 kts | 63° |
| 2026-05-06 19:09 | 50.45557 | 12.52946 | 22786 ft | 426 kts | 63° |
| 2026-05-06 19:09 | 50.46931 | 12.57071 | 22789 ft | 426 kts | 63° |
| 2026-05-06 19:09 | 50.48305 | 12.61199 | 22786 ft | 426 kts | 63° |
| 2026-05-06 19:10 | 50.49657 | 12.65270 | 22789 ft | 427 kts | 63° |
| 2026-05-06 19:10 | 50.51033 | 12.69418 | 22789 ft | 427 kts | 64° |
| 2026-05-06 19:10 | 50.52404 | 12.73561 | 22785 ft | 427 kts | 64° |
| 2026-05-06 19:10 | 50.53773 | 12.77700 | 22553 ft | 425 kts | 64° |
| 2026-05-06 19:11 | 50.55134 | 12.81825 | 21946 ft | 427 kts | 64° |
| 2026-05-06 19:11 | 50.56506 | 12.85991 | 21107 ft | 430 kts | 64° |
| 2026-05-06 19:11 | 50.57891 | 12.90206 | 20111 ft | 436 kts | 64° |
| 2026-05-06 19:11 | 50.59295 | 12.94485 | 19042 ft | 443 kts | 64° |
| 2026-05-06 19:12 | 50.60718 | 12.98825 | 17913 ft | 450 kts | 64° |
| 2026-05-06 19:12 | 50.62270 | 13.03131 | 16887 ft | 452 kts | 57° |
| 2026-05-06 19:12 | 50.64177 | 13.07033 | 16091 ft | 447 kts | 49° |
| 2026-05-06 19:12 | 50.66353 | 13.10408 | 15334 ft | 442 kts | 41° |
| 2026-05-06 19:13 | 50.68643 | 13.13573 | 14756 ft | 434 kts | 41° |
| 2026-05-06 19:13 | 50.70863 | 13.16668 | 14530 ft | 416 kts | 41° |
| 2026-05-06 19:13 | 50.72990 | 13.19644 | 14222 ft | 402 kts | 41° |
| 2026-05-06 19:13 | 50.75087 | 13.22581 | 13321 ft | 406 kts | 41° |
| 2026-05-06 19:14 | 50.77219 | 13.25566 | 12203 ft | 412 kts | 41° |
| 2026-05-06 19:14 | 50.79389 | 13.28606 | 11227 ft | 416 kts | 41° |
| 2026-05-06 19:14 | 50.81508 | 13.31596 | 10546 ft | 411 kts | 43° |
| 2026-05-06 19:14 | 50.83590 | 13.34612 | 9971 ft | 403 kts | 43° |
| 2026-05-06 19:15 | 50.85649 | 13.37599 | 9266 ft | 399 kts | 43° |
| 2026-05-06 19:15 | 50.87686 | 13.40545 | 8600 ft | 393 kts | 42° |
| 2026-05-06 19:15 | 50.89703 | 13.43452 | 8034 ft | 386 kts | 42° |
| 2026-05-06 19:15 | 50.91687 | 13.46300 | 7821 ft | 389 kts | 42° |
| 2026-05-06 19:16 | 50.93701 | 13.49178 | 7676 ft | 388 kts | 41° |
| 2026-05-06 19:16 | 50.95703 | 13.52028 | 7521 ft | 386 kts | 41° |
| 2026-05-06 19:16 | 50.97709 | 13.54872 | 7031 ft | 386 kts | 41° |
| 2026-05-06 19:16 | 50.99746 | 13.57734 | 5978 ft | 396 kts | 41° |
| 2026-05-06 19:17 | 51.01787 | 13.60607 | 5605 ft | 382 kts | 41° |
| 2026-05-06 19:17 | 51.03732 | 13.63338 | 5059 ft | 373 kts | 41° |
| 2026-05-06 19:17 | 51.05663 | 13.66043 | 3665 ft | 379 kts | 40° |
| 2026-05-06 19:17 | 51.07689 | 13.68862 | 2425 ft | 380 kts | 41° |
| 2026-05-06 19:18 | 51.09441 | 13.71366 | 1637 ft | 291 kts | 42° |
| 2026-05-06 19:18 | 51.10822 | 13.73228 | 1224 ft | 231 kts | 40° |
| 2026-05-06 19:18 | 51.11922 | 13.74718 | 936 ft | 186 kts | 41° |
| 2026-05-06 19:18 | 51.12813 | 13.75949 | 773 ft | 156 kts | 40° |
| 2026-05-06 19:19 | 51.13451 | 13.76823 | 731 ft | 67 kts | 40° |
| 2026-05-06 19:19 | 51.13636 | 13.77077 | 728 ft | 31 kts | 41° |
| 2026-05-06 19:19 | 51.13790 | 13.77348 | 725 ft | 33 kts | 50° |
| 2026-05-06 19:19 | 51.13900 | 13.77500 | 719 ft | 0 kts | 94° |
| 2026-05-06 19:20 | 51.13888 | 13.77531 | 722 ft | 8 kts | 123° |
| 2026-05-06 19:20 | 51.13829 | 13.77644 | 721 ft | 18 kts | 130° |
| 2026-05-06 19:20 | 51.13796 | 13.77709 | 717 ft | 3 kts | 128° |
| 2026-05-06 19:20 | 51.13753 | 13.77708 | 717 ft | 11 kts | 207° |
| 2026-05-06 19:21 | 51.13672 | 13.77603 | 719 ft | 19 kts | 221° |
| 2026-05-06 19:21 | 51.13557 | 13.77446 | 723 ft | 26 kts | 221° |
| 2026-05-06 19:21 | 51.13407 | 13.77239 | 726 ft | 29 kts | 220° |
| 2026-05-06 19:21 | 51.13247 | 13.77019 | 733 ft | 32 kts | 221° |
| 2026-05-06 19:22 | 51.13069 | 13.76777 | 739 ft | 31 kts | 220° |
| 2026-05-06 19:22 | 51.12936 | 13.76591 | 742 ft | 28 kts | 220° |
| 2026-05-06 19:22 | 51.12808 | 13.76440 | 747 ft | 14 kts | 182° |
| 2026-05-06 19:22 | 51.12796 | 13.76440 | 745 ft | 1 kts | 201° |
| 2026-05-06 19:23 | 51.12756 | 13.76362 | 748 ft | 17 kts | 230° |
| 2026-05-06 19:23 | 51.12702 | 13.76277 | 747 ft | 1 kts | 181° |
| 2026-05-06 19:23 | 51.12701 | 13.76281 | 748 ft | 0 kts | 147° |
| 2026-05-06 19:23 | 51.12696 | 13.76288 | 747 ft | 2 kts | 141° |
| 2026-05-06 19:24 | 51.12672 | 13.76323 | 749 ft | 9 kts | 134° |
| 2026-05-06 19:24 | 51.12639 | 13.76382 | 749 ft | 3 kts | 130° |
| 2026-05-06 19:24 | 51.12633 | 13.76394 | 751 ft | 0 kts | 130° |